KMMV

Mc Minnville Municipal Airport

Mc Minnville, Oregon, USA
METAR KMMV 201953Z AUTO VRB03KT 4SM HZ CLR 23/14 A2999 RMK AO2 SLP155 T02330139
Observed Flight Rules
Aug-20 @ 19:53 UTC (38 minutes ago) Marginal Visual Flight Rules
Wind Visibility Clouds Conditions
Variable at 3 knots 4 miles
  • Clear skies
  • Haze
Temperatures Readings
Current 23°C / 73°F
Dewpoint 14°C / 57°F
Humidity 57%
Altimeter 29.99" Hg
Pressure 1015.5 hPa
Elevation 48
METAR KMMV 201953Z AUTO VRB03KT 4SM HZ CLR 23/14 A2999 RMK AO2 SLP155 T02330139
Observed Flight Rules
Aug-20 @ 19:53 UTC
(38 minutes ago)
MVFR
Wind Visibility
Variable at 3 knots 4 miles
Clouds
  • Clear skies
Conditions
  • Haze
Temperature Dewpoint
23°C / 73°F 14°C / 57°F
Humidity Altimeter Pressure
57% 29.99" Hg 1015.5 hPa